Time;durP1;ratioP1;P1;durP2;ratioP2;P2;SDS_P1;SDS_P2;PMS_P1;PMS_P2;Temp;Humidity;BMP_temperature;BMP_pressure;BME280_temperature;BME280_humidity;BME280_pressure;Samples;Min_cycle;Max_cycle;Signal;HPM_P1;HPM_P2
2023/04/01 00:01:03;;;;;;;;;;;;;;;;;;5049853;28;20278;-44
2023/04/01 00:03:30;;;;;;;;;;;;;;;;;;5041804;28;20362;-45
2023/04/01 00:05:56;;;;;;;;;;;;;;;;;;5050605;28;20355;-46
2023/04/01 00:08:23;;;;;;;;;;;;;;;;;;5050113;28;19913;-44
2023/04/01 00:10:49;;;;;;;;;;;;;;;;;;5048681;28;19915;-44
2023/04/01 00:13:16;;;;;;;;;;;;;;;;;;5051444;28;19944;-45
2023/04/01 00:15:42;;;;;;;;;;;;;;;;;;5048692;28;19966;-44
2023/04/01 00:18:09;;;;;;;;;;;;;;;;;;5048096;28;19912;-45
2023/04/01 00:20:35;;;;;;;;;;;;;;;;;;5048500;28;19924;-47
2023/04/01 00:23:01;;;;;;;;;;;;;;;;;;5040409;28;19909;-41
2023/04/01 00:25:28;;;;;;;;;;;;;;;;;;5037469;28;20293;-45
2023/04/01 00:27:54;;;;;;;;;;;;;;;;;;5044556;28;19995;-47
2023/04/01 00:30:21;;;;;;;;;;;;;;;;;;5038150;28;19916;-44
2023/04/01 00:32:47;;;;;;;;;;;;;;;;;;5039229;28;19925;-42
2023/04/01 00:35:14;;;;;;;;;;;;;;;;;;5039521;28;19959;-44
2023/04/01 00:37:40;;;;;;;;;;;;;;;;;;5038955;28;20006;-43
2023/04/01 00:40:07;;;;;;;;;;;;;;;;;;5039714;28;19924;-43
2023/04/01 00:42:33;;;;;;;;;;;;;;;;;;5038995;28;19916;-44
2023/04/01 00:44:59;;;;;;;;;;;;;;;;;;5037183;28;19916;-44
2023/04/01 00:47:26;;;;;;;;;;;;;;;;;;5041484;28;20378;-44
2023/04/01 00:49:54;;;;;;;;;;;;;;;;;;5038596;28;20362;-44
2023/04/01 00:52:22;;;;;;;;;;;;;;;;;;5043117;28;19913;-44
2023/04/01 00:54:49;;;;;;;;;;;;;;;;;;5034208;28;20396;-44
2023/04/01 00:57:16;;;;;;;;;;;;;;;;;;5033378;28;19912;-41
2023/04/01 00:59:42;;;;;;;;;;;;;;;;;;5036289;28;20281;-46
2023/04/01 01:02:09;;;;;;;;;;;;;;;;;;5049228;28;19916;-46
2023/04/01 01:04:35;;;;;;;;;;;;;;;;;;5051402;28;19912;-41
2023/04/01 01:07:02;;;;;;;;;;;;;;;;;;5050440;28;20046;-43
2023/04/01 01:09:30;;;;;;;;;;;;;;;;;;5046819;28;19917;-46
2023/04/01 01:11:56;;;;;;;;;;;;;;;;;;5028703;28;19908;-41
2023/04/01 01:14:22;;;;;;;;;;;;;;;;;;5049142;28;19909;-48
2023/04/01 01:16:49;;;;;;;;;;;;;;;;;;5050990;28;20007;-46
2023/04/01 01:19:15;;;;;;;;;;;;;;;;;;5050725;28;19962;-47
2023/04/01 01:21:42;;;;;;;;;;;;;;;;;;5035787;28;19916;-46
2023/04/01 01:24:08;;;;;;;;;;;;;;;;;;5045973;28;20264;-45
2023/04/01 01:26:34;;;;;;;;;;;;;;;;;;5047926;28;19925;-44
2023/04/01 01:29:01;;;;;;;;;;;;;;;;;;5050500;28;19955;-47
2023/04/01 01:31:27;;;;;;;;;;;;;;;;;;5053096;28;20011;-45
2023/04/01 01:33:54;;;;;;;;;;;;;;;;;;5053957;28;19913;-49
2023/04/01 01:36:20;;;;;;;;;;;;;;;;;;5054311;28;19920;-47
2023/04/01 01:38:47;;;;;;;;;;;;;;;;;;5054406;28;19908;-43
2023/04/01 01:41:13;;;;;;;;;;;;;;;;;;5043176;28;19908;-45
2023/04/01 01:43:40;;;;;;;;;;;;;;;;;;5054265;28;20370;-44
2023/04/01 01:46:06;;;;;;;;;;;;;;;;;;5054590;28;19916;-47
2023/04/01 01:48:32;;;;;;;;;;;;;;;;;;5035995;28;20350;-47
2023/04/01 01:50:59;;;;;;;;;;;;;;;;;;5053726;28;20006;-46
2023/04/01 01:53:25;;;;;;;;;;;;;;;;;;5053548;28;19916;-44
2023/04/01 01:55:52;;;;;;;;;;;;;;;;;;5054254;28;19931;-42
2023/04/01 01:58:18;;;;;;;;;;;;;;;;;;5054613;28;19909;-48
2023/04/01 02:00:45;;;;;;;;;;;;;;;;;;5054758;28;19913;-44
2023/04/01 02:03:11;;;;;;;;;;;;;;;;;;5045983;28;20035;-52
2023/04/01 02:05:37;;;;;;;;;;;;;;;;;;5049879;28;20364;-48
2023/04/01 02:08:04;;;;;;;;;;;;;;;;;;5052666;28;19909;-52
2023/04/01 02:10:30;;;;;;;;;;;;;;;;;;5044400;28;19960;-49
2023/04/01 02:12:57;;;;;;;;;;;;;;;;;;5045275;28;19917;-48
2023/04/01 02:15:24;;;;;;;;;;;;;;;;;;5043221;28;19978;-47
2023/04/01 02:17:51;;;;;;;;;;;;;;;;;;5042336;28;19920;-49
2023/04/01 02:20:18;;;;;;;;;;;;;;;;;;5039565;28;20712;-48
2023/04/01 02:22:45;;;;;;;;;;;;;;;;;;5044094;28;19917;-45
2023/04/01 02:25:11;;;;;;;;;;;;;;;;;;5038202;28;20305;-48
2023/04/01 02:27:38;;;;;;;;;;;;;;;;;;5038881;28;20331;-47
2023/04/01 02:30:04;;;;;;;;;;;;;;;;;;5042488;28;20430;-50
2023/04/01 02:32:30;;;;;;;;;;;;;;;;;;5045595;28;19958;-50
2023/04/01 02:34:59;;;;;;;;;;;;;;;;;;5043349;28;19921;-46
2023/04/01 02:37:25;;;;;;;;;;;;;;;;;;5044268;28;19944;-49
2023/04/01 02:39:51;;;;;;;;;;;;;;;;;;5042690;28;20523;-53
2023/04/01 02:42:18;;;;;;;;;;;;;;;;;;5044960;28;19916;-46
2023/04/01 02:44:44;;;;;;;;;;;;;;;;;;5045760;28;19909;-50
2023/04/01 02:47:11;;;;;;;;;;;;;;;;;;5042565;28;19983;-48
2023/04/01 02:49:37;;;;;;;;;;;;;;;;;;5038571;28;20007;-48
2023/04/01 02:52:03;;;;;;;;;;;;;;;;;;5032911;28;20070;-48
2023/04/01 02:54:30;;;;;;;;;;;;;;;;;;5044207;28;19909;-50
2023/04/01 02:56:56;;;;;;;;;;;;;;;;;;5041306;28;20370;-53
2023/04/01 02:59:23;;;;;;;;;;;;;;;;;;5041539;28;19913;-48
2023/04/01 03:01:49;;;;;;;;;;;;;;;;;;5045105;28;20475;-48
2023/04/01 03:04:16;;;;;;;;;;;;;;;;;;5043628;28;19993;-51
2023/04/01 03:06:42;;;;;;;;;;;;;;;;;;5045064;28;19928;-47
2023/04/01 03:09:09;;;;;;;;;;;;;;;;;;5035726;28;19916;-46
2023/04/01 03:11:35;;;;;;;;;;;;;;;;;;5052805;28;19923;-49
2023/04/01 03:14:02;;;;;;;;;;;;;;;;;;5045665;28;19909;-46
2023/04/01 03:16:28;;;;;;;;;;;;;;;;;;5045382;28;19913;-48
2023/04/01 03:18:56;;;;;;;;;;;;;;;;;;5041312;28;19915;-51
2023/04/01 03:21:23;;;;;;;;;;;;;;;;;;5040662;28;20007;-47
2023/04/01 03:23:49;;;;;;;;;;;;;;;;;;5041933;28;19909;-44
2023/04/01 03:26:16;;;;;;;;;;;;;;;;;;5045784;28;19921;-44
2023/04/01 03:28:42;;;;;;;;;;;;;;;;;;5043142;28;20024;-54
2023/04/01 03:31:09;;;;;;;;;;;;;;;;;;5032923;28;19939;-46
2023/04/01 03:33:35;;;;;;;;;;;;;;;;;;5052120;28;19970;-47
2023/04/01 03:36:03;;;;;;;;;;;;;;;;;;5052221;28;19909;-56
2023/04/01 03:38:29;;;;;;;;;;;;;;;;;;5052281;28;19908;-48
2023/04/01 03:40:56;;;;;;;;;;;;;;;;;;5045690;28;19913;-49
2023/04/01 03:43:22;;;;;;;;;;;;;;;;;;5044915;28;19951;-46
2023/04/01 03:45:48;;;;;;;;;;;;;;;;;;5044602;28;20271;-45
2023/04/01 03:48:15;;;;;;;;;;;;;;;;;;5043732;28;19959;-52
2023/04/01 03:50:41;;;;;;;;;;;;;;;;;;5043465;28;19916;-47
2023/04/01 03:53:07;;;;;;;;;;;;;;;;;;5051275;28;19909;-47
2023/04/01 03:55:34;;;;;;;;;;;;;;;;;;5051732;28;19912;-45
2023/04/01 03:58:02;;;;;;;;;;;;;;;;;;5032536;28;19916;-52
2023/04/01 04:00:28;;;;;;;;;;;;;;;;;;5041614;28;19919;-47
2023/04/01 04:02:56;;;;;;;;;;;;;;;;;;5043260;28;20380;-46
2023/04/01 04:05:22;;;;;;;;;;;;;;;;;;5046904;28;19913;-50
2023/04/01 04:07:49;;;;;;;;;;;;;;;;;;5040323;28;19916;-46
2023/04/01 04:10:15;;;;;;;;;;;;;;;;;;5051291;28;19916;-44
2023/04/01 04:12:42;;;;;;;;;;;;;;;;;;5051566;28;19970;-46
2023/04/01 04:15:08;;;;;;;;;;;;;;;;;;5051275;28;19919;-51
2023/04/01 04:17:35;;;;;;;;;;;;;;;;;;5042685;28;20393;-46
2023/04/01 04:20:01;;;;;;;;;;;;;;;;;;5042200;28;19915;-46
2023/04/01 04:22:27;;;;;;;;;;;;;;;;;;5031203;28;20330;-48
2023/04/01 04:24:54;;;;;;;;;;;;;;;;;;5040019;28;19975;-45
2023/04/01 04:27:20;;;;;;;;;;;;;;;;;;5040747;28;19917;-49
2023/04/01 04:29:47;;;;;;;;;;;;;;;;;;5041303;28;19913;-45
2023/04/01 04:32:13;;;;;;;;;;;;;;;;;;5042530;28;19919;-46
2023/04/01 04:34:39;;;;;;;;;;;;;;;;;;5047102;28;19908;-45
2023/04/01 04:37:06;;;;;;;;;;;;;;;;;;5050825;28;19916;-47
2023/04/01 04:39:32;;;;;;;;;;;;;;;;;;5050699;28;20374;-47
2023/04/01 04:41:59;;;;;;;;;;;;;;;;;;5050844;28;19913;-45
2023/04/01 04:44:25;;;;;;;;;;;;;;;;;;5033243;28;20329;-50
2023/04/01 04:46:51;;;;;;;;;;;;;;;;;;5050696;28;19932;-48
2023/04/01 04:49:18;;;;;;;;;;;;;;;;;;5050976;28;19909;-45
2023/04/01 04:51:45;;;;;;;;;;;;;;;;;;5050817;28;19917;-46
2023/04/01 04:54:11;;;;;;;;;;;;;;;;;;5045320;28;19919;-48
2023/04/01 04:56:38;;;;;;;;;;;;;;;;;;5042437;28;19952;-48
2023/04/01 04:59:05;;;;;;;;;;;;;;;;;;5041365;28;19915;-46
2023/04/01 05:01:33;;;;;;;;;;;;;;;;;;5040116;28;20362;-47
2023/04/01 05:03:59;;;;;;;;;;;;;;;;;;5042049;28;20078;-48
2023/04/01 05:06:29;;;;;;;;;;;;;;;;;;5040601;28;19960;-49
2023/04/01 05:08:55;;;;;;;;;;;;;;;;;;5040074;28;19913;-45
2023/04/01 05:11:21;;;;;;;;;;;;;;;;;;5041759;28;20351;-48
2023/04/01 05:13:48;;;;;;;;;;;;;;;;;;5020685;28;19917;-49
2023/04/01 05:16:14;;;;;;;;;;;;;;;;;;5039692;28;20298;-45
2023/04/01 05:18:41;;;;;;;;;;;;;;;;;;5031882;28;19913;-46
2023/04/01 05:21:07;;;;;;;;;;;;;;;;;;5031802;28;19912;-49
2023/04/01 05:23:34;;;;;;;;;;;;;;;;;;5031658;28;20090;-47
2023/04/01 05:26:00;;;;;;;;;;;;;;;;;;5031380;28;19944;-47
2023/04/01 05:28:26;;;;;;;;;;;;;;;;;;5031752;28;20000;-46
2023/04/01 05:30:53;;;;;;;;;;;;;;;;;;5031884;28;19909;-50
2023/04/01 05:33:19;;;;;;;;;;;;;;;;;;5031878;28;20318;-44
2023/04/01 05:35:45;;;;;;;;;;;;;;;;;;5031678;28;20382;-46
2023/04/01 05:38:12;;;;;;;;;;;;;;;;;;5031692;28;19923;-48
2023/04/01 05:40:38;;;;;;;;;;;;;;;;;;5031682;28;20278;-45
2023/04/01 05:43:05;;;;;;;;;;;;;;;;;;5031485;28;19920;-46
2023/04/01 05:45:31;;;;;;;;;;;;;;;;;;5031027;28;20010;-48
2023/04/01 05:47:58;;;;;;;;;;;;;;;;;;5031610;28;20053;-46
2023/04/01 05:50:24;;;;;;;;;;;;;;;;;;5031498;28;19920;-47
2023/04/01 05:52:51;;;;;;;;;;;;;;;;;;5031514;28;19909;-47
2023/04/01 05:55:17;;;;;;;;;;;;;;;;;;5031441;28;19920;-48
2023/04/01 05:57:43;;;;;;;;;;;;;;;;;;5031536;28;19909;-49
2023/04/01 06:00:10;;;;;;;;;;;;;;;;;;5031560;28;19908;-47
2023/04/01 06:02:37;;;;;;;;;;;;;;;;;;5042736;28;20330;-47
2023/04/01 06:05:03;;;;;;;;;;;;;;;;;;5051420;28;19913;-50
2023/04/01 06:07:30;;;;;;;;;;;;;;;;;;5051440;28;19913;-48
2023/04/01 06:09:56;;;;;;;;;;;;;;;;;;5051375;28;19912;-44
2023/04/01 06:12:22;;;;;;;;;;;;;;;;;;5051378;28;19913;-49
2023/04/01 06:14:49;;;;;;;;;;;;;;;;;;5051176;28;19945;-47
2023/04/01 06:17:15;;;;;;;;;;;;;;;;;;5053423;28;19958;-48
2023/04/01 06:19:42;;;;;;;;;;;;;;;;;;5054897;28;19908;-45
2023/04/01 06:22:08;;;;;;;;;;;;;;;;;;5054834;28;19951;-47
2023/04/01 06:24:34;;;;;;;;;;;;;;;;;;5054204;28;19924;-45
2023/04/01 06:27:01;;;;;;;;;;;;;;;;;;5053283;28;20019;-45
2023/04/01 06:29:27;;;;;;;;;;;;;;;;;;5054222;28;19934;-47
2023/04/01 06:31:54;;;;;;;;;;;;;;;;;;5053372;28;20275;-50
2023/04/01 06:34:20;;;;;;;;;;;;;;;;;;5054476;28;19905;-48
2023/04/01 06:36:47;;;;;;;;;;;;;;;;;;5054479;28;19919;-48
2023/04/01 06:39:13;;;;;;;;;;;;;;;;;;5054571;28;19912;-44
2023/04/01 06:41:40;;;;;;;;;;;;;;;;;;5053907;28;19913;-45
2023/04/01 06:44:06;;;;;;;;;;;;;;;;;;5053615;28;19915;-44
2023/04/01 06:46:32;;;;;;;;;;;;;;;;;;5053498;28;19963;-47
2023/04/01 06:48:59;;;;;;;;;;;;;;;;;;5053665;28;19913;-44
2023/04/01 06:51:25;;;;;;;;;;;;;;;;;;5053553;28;20011;-44
2023/04/01 06:53:52;;;;;;;;;;;;;;;;;;5053278;28;20008;-44
2023/04/01 06:56:18;;;;;;;;;;;;;;;;;;5053632;28;19920;-47
2023/04/01 06:58:45;;;;;;;;;;;;;;;;;;5053826;28;19917;-48
2023/04/01 07:01:11;;;;;;;;;;;;;;;;;;5053987;28;20509;-47
2023/04/01 07:03:38;;;;;;;;;;;;;;;;;;5053633;28;19908;-48
2023/04/01 07:06:04;;;;;;;;;;;;;;;;;;5053887;28;19920;-44
2023/04/01 07:08:30;;;;;;;;;;;;;;;;;;5053864;28;19958;-47
2023/04/01 07:10:57;;;;;;;;;;;;;;;;;;5053732;28;20437;-48
2023/04/01 07:13:23;;;;;;;;;;;;;;;;;;5053786;28;19956;-47
2023/04/01 07:15:50;;;;;;;;;;;;;;;;;;5053768;28;19947;-46
2023/04/01 07:18:16;;;;;;;;;;;;;;;;;;5053674;28;19958;-44
2023/04/01 07:20:43;;;;;;;;;;;;;;;;;;5053705;28;19909;-45
2023/04/01 07:23:09;;;;;;;;;;;;;;;;;;5053436;28;19912;-44
2023/04/01 07:25:35;;;;;;;;;;;;;;;;;;5053295;28;19924;-45
2023/04/01 07:28:02;;;;;;;;;;;;;;;;;;5052769;28;20017;-44
2023/04/01 07:30:28;;;;;;;;;;;;;;;;;;5053585;28;19905;-45
2023/04/01 07:32:55;;;;;;;;;;;;;;;;;;5053472;28;19912;-45
2023/04/01 07:35:21;;;;;;;;;;;;;;;;;;5053228;28;19905;-44
2023/04/01 07:37:48;;;;;;;;;;;;;;;;;;5053141;28;19915;-44
2023/04/01 07:40:14;;;;;;;;;;;;;;;;;;5053313;28;19943;-44
2023/04/01 07:42:41;;;;;;;;;;;;;;;;;;5052007;28;19967;-45
2023/04/01 07:45:07;;;;;;;;;;;;;;;;;;5053069;28;19931;-44
2023/04/01 07:47:33;;;;;;;;;;;;;;;;;;5053270;28;19908;-45
2023/04/01 07:50:00;;;;;;;;;;;;;;;;;;5053072;28;19912;-44
2023/04/01 07:52:26;;;;;;;;;;;;;;;;;;5053218;28;20011;-45
2023/04/01 07:54:53;;;;;;;;;;;;;;;;;;5052997;28;19915;-45
2023/04/01 07:57:19;;;;;;;;;;;;;;;;;;5052999;28;19909;-50
2023/04/01 07:59:45;;;;;;;;;;;;;;;;;;5052019;28;19916;-48
2023/04/01 08:02:12;;;;;;;;;;;;;;;;;;5052584;28;19917;-44
2023/04/01 08:04:40;;;;;;;;;;;;;;;;;;5052756;28;19915;-44
2023/04/01 08:07:07;;;;;;;;;;;;;;;;;;5052738;28;19929;-44
2023/04/01 08:09:33;;;;;;;;;;;;;;;;;;5052675;28;19920;-47
2023/04/01 08:12:00;;;;;;;;;;;;;;;;;;5052724;28;19961;-46
2023/04/01 08:14:27;;;;;;;;;;;;;;;;;;5052173;28;19976;-47
2023/04/01 08:16:53;;;;;;;;;;;;;;;;;;5052523;28;19908;-46
2023/04/01 08:19:20;;;;;;;;;;;;;;;;;;5052406;28;19913;-49
2023/04/01 08:21:46;;;;;;;;;;;;;;;;;;5052456;28;19955;-47
2023/04/01 08:24:12;;;;;;;;;;;;;;;;;;5052232;28;19956;-44
2023/04/01 08:26:44;;;;;;;;;;;;;;;;;;5052257;28;19971;-44
2023/04/01 08:29:10;;;;;;;;;;;;;;;;;;5052312;28;19908;-45
2023/04/01 08:31:37;;;;;;;;;;;;;;;;;;5052462;28;19909;-46
2023/04/01 08:34:04;;;;;;;;;;;;;;;;;;5052202;28;19919;-46
2023/04/01 08:36:31;;;;;;;;;;;;;;;;;;5052257;28;19919;-45
2023/04/01 08:38:57;;;;;;;;;;;;;;;;;;5052000;28;20408;-48
2023/04/01 08:41:23;;;;;;;;;;;;;;;;;;5052299;28;19913;-45
2023/04/01 08:43:50;;;;;;;;;;;;;;;;;;5052068;28;19909;-46
2023/04/01 08:46:16;;;;;;;;;;;;;;;;;;5052185;28;19917;-46
2023/04/01 08:48:42;;;;;;;;;;;;;;;;;;5052061;28;19975;-47
2023/04/01 08:51:09;;;;;;;;;;;;;;;;;;5051889;28;19908;-44
2023/04/01 08:53:35;;;;;;;;;;;;;;;;;;5052013;28;20365;-47
2023/04/01 08:56:02;;;;;;;;;;;;;;;;;;5051942;28;20370;-48
2023/04/01 08:58:28;;;;;;;;;;;;;;;;;;5051934;28;20605;-45
2023/04/01 09:00:55;;;;;;;;;;;;;;;;;;5051857;28;19912;-46
2023/04/01 09:03:21;;;;;;;;;;;;;;;;;;5051923;28;19909;-45
2023/04/01 09:05:47;;;;;;;;;;;;;;;;;;5051911;28;20002;-46
2023/04/01 09:08:14;;;;;;;;;;;;;;;;;;5051555;28;19936;-46
2023/04/01 09:10:40;;;;;;;;;;;;;;;;;;5051862;28;19936;-47
2023/04/01 09:13:07;;;;;;;;;;;;;;;;;;5051837;28;20021;-48
2023/04/01 09:15:33;;;;;;;;;;;;;;;;;;5051771;28;19950;-46
2023/04/01 09:17:59;;;;;;;;;;;;;;;;;;5051813;28;20264;-45
2023/04/01 09:20:26;;;;;;;;;;;;;;;;;;5051853;28;20427;-48
2023/04/01 09:22:52;;;;;;;;;;;;;;;;;;5051631;28;19959;-47
2023/04/01 09:25:18;;;;;;;;;;;;;;;;;;5051490;28;20401;-44
2023/04/01 09:27:45;;;;;;;;;;;;;;;;;;5051224;28;20333;-46
2023/04/01 09:30:11;;;;;;;;;;;;;;;;;;5050413;28;19928;-46
2023/04/01 09:32:38;;;;;;;;;;;;;;;;;;5050808;28;19912;-48
2023/04/01 09:35:04;;;;;;;;;;;;;;;;;;5050846;28;19912;-45
2023/04/01 09:37:31;;;;;;;;;;;;;;;;;;5051033;28;19916;-45
2023/04/01 09:39:57;;;;;;;;;;;;;;;;;;5051545;28;20262;-47
2023/04/01 09:42:24;;;;;;;;;;;;;;;;;;5051138;28;19996;-45
2023/04/01 09:44:51;;;;;;;;;;;;;;;;;;5051365;28;19909;-45
2023/04/01 09:47:17;;;;;;;;;;;;;;;;;;5051589;28;19938;-47
2023/04/01 09:49:43;;;;;;;;;;;;;;;;;;5051527;28;19917;-45
2023/04/01 09:52:10;;;;;;;;;;;;;;;;;;5053639;28;19912;-49
2023/04/01 09:54:36;;;;;;;;;;;;;;;;;;5055048;28;19919;-49
2023/04/01 09:57:03;;;;;;;;;;;;;;;;;;5055289;28;19908;-45
2023/04/01 09:59:29;;;;;;;;;;;;;;;;;;5055270;28;19913;-46
2023/04/01 10:01:55;;;;;;;;;;;;;;;;;;5041740;28;19921;-46
2023/04/01 10:04:22;;;;;;;;;;;;;;;;;;5035179;28;19913;-46
2023/04/01 10:06:48;;;;;;;;;;;;;;;;;;5035083;28;20483;-48
2023/04/01 10:09:15;;;;;;;;;;;;;;;;;;5035205;28;20290;-47
2023/04/01 10:11:41;;;;;;;;;;;;;;;;;;5035257;28;20333;-47
2023/04/01 10:14:08;;;;;;;;;;;;;;;;;;5034338;28;19909;-49
2023/04/01 10:16:34;;;;;;;;;;;;;;;;;;5034262;28;19951;-46
2023/04/01 10:19:00;;;;;;;;;;;;;;;;;;5034257;28;19913;-46
2023/04/01 10:21:27;;;;;;;;;;;;;;;;;;5034488;28;20354;-45
2023/04/01 10:23:53;;;;;;;;;;;;;;;;;;5034710;28;20018;-50
2023/04/01 10:26:21;;;;;;;;;;;;;;;;;;5034386;28;20393;-46
2023/04/01 10:28:47;;;;;;;;;;;;;;;;;;5034943;28;20305;-48
2023/04/01 10:31:14;;;;;;;;;;;;;;;;;;5034686;28;20375;-48
2023/04/01 10:33:40;;;;;;;;;;;;;;;;;;5034520;28;19916;-45
2023/04/01 10:36:07;;;;;;;;;;;;;;;;;;5034641;28;19916;-45
2023/04/01 10:38:33;;;;;;;;;;;;;;;;;;5034563;28;20437;-46
2023/04/01 10:41:00;;;;;;;;;;;;;;;;;;5033268;28;19967;-50
2023/04/01 10:43:26;;;;;;;;;;;;;;;;;;5034329;28;20372;-47
2023/04/01 10:45:52;;;;;;;;;;;;;;;;;;5034298;28;19948;-47
2023/04/01 10:48:19;;;;;;;;;;;;;;;;;;5034455;28;19920;-49
2023/04/01 10:50:45;;;;;;;;;;;;;;;;;;5034367;28;19909;-46
2023/04/01 10:53:11;;;;;;;;;;;;;;;;;;5034255;28;19917;-46
2023/04/01 10:55:38;;;;;;;;;;;;;;;;;;5034076;28;20426;-45
2023/04/01 10:58:05;;;;;;;;;;;;;;;;;;5034119;28;19915;-49
2023/04/01 11:00:31;;;;;;;;;;;;;;;;;;5034172;28;19908;-45
2023/04/01 11:02:57;;;;;;;;;;;;;;;;;;5032693;28;19995;-47
2023/04/01 11:05:24;;;;;;;;;;;;;;;;;;5033594;28;19916;-47
2023/04/01 11:07:50;;;;;;;;;;;;;;;;;;5034127;28;19909;-45
2023/04/01 11:10:17;;;;;;;;;;;;;;;;;;5033538;28;19919;-47
2023/04/01 11:12:43;;;;;;;;;;;;;;;;;;5045995;28;19915;-47
2023/04/01 11:15:09;;;;;;;;;;;;;;;;;;5039336;28;19944;-49
2023/04/01 11:17:36;;;;;;;;;;;;;;;;;;5053053;28;19967;-50
2023/04/01 11:20:02;;;;;;;;;;;;;;;;;;5053246;28;19913;-47
2023/04/01 11:22:29;;;;;;;;;;;;;;;;;;5052322;28;20353;-49
2023/04/01 11:24:55;;;;;;;;;;;;;;;;;;5053256;28;19975;-47
2023/04/01 11:27:21;;;;;;;;;;;;;;;;;;5053590;28;19916;-47
2023/04/01 11:29:48;;;;;;;;;;;;;;;;;;5053656;28;19909;-49
2023/04/01 11:32:15;;;;;;;;;;;;;;;;;;5053485;28;19908;-45
2023/04/01 11:34:41;;;;;;;;;;;;;;;;;;5052923;28;19931;-46
2023/04/01 11:37:07;;;;;;;;;;;;;;;;;;5052008;28;19935;-46
2023/04/01 11:39:34;;;;;;;;;;;;;;;;;;5050691;28;19912;-49
2023/04/01 11:42:01;;;;;;;;;;;;;;;;;;5052329;28;20608;-47
2023/04/01 11:44:28;;;;;;;;;;;;;;;;;;5052475;28;19946;-45
2023/04/01 11:46:54;;;;;;;;;;;;;;;;;;5049201;28;19916;-46
2023/04/01 11:49:21;;;;;;;;;;;;;;;;;;5039594;28;19920;-45
2023/04/01 11:51:47;;;;;;;;;;;;;;;;;;5033113;28;19913;-47
2023/04/01 11:54:13;;;;;;;;;;;;;;;;;;5032931;28;19920;-51
2023/04/01 11:56:40;;;;;;;;;;;;;;;;;;5032929;28;19909;-44
2023/04/01 11:59:06;;;;;;;;;;;;;;;;;;5032760;28;19948;-49
2023/04/01 12:01:33;;;;;;;;;;;;;;;;;;5032826;28;20386;-46
2023/04/01 12:03:59;;;;;;;;;;;;;;;;;;5045218;28;20340;-49
2023/04/01 12:06:25;;;;;;;;;;;;;;;;;;5045908;28;19924;-44
2023/04/01 12:08:54;;;;;;;;;;;;;;;;;;5046044;28;19909;-46
2023/04/01 12:11:20;;;;;;;;;;;;;;;;;;5047515;28;19949;-47
2023/04/01 12:13:47;;;;;;;;;;;;;;;;;;5051270;28;19913;-47
2023/04/01 12:16:13;;;;;;;;;;;;;;;;;;5052085;28;20031;-44
2023/04/01 12:18:40;;;;;;;;;;;;;;;;;;5052163;28;19909;-46
2023/04/01 12:21:06;;;;;;;;;;;;;;;;;;5052243;28;20370;-46
2023/04/01 12:23:32;;;;;;;;;;;;;;;;;;5049690;28;19999;-50
2023/04/01 12:25:59;;;;;;;;;;;;;;;;;;5050817;28;20457;-46
2023/04/01 12:28:25;;;;;;;;;;;;;;;;;;5051109;28;20011;-43
2023/04/01 12:30:52;;;;;;;;;;;;;;;;;;5050037;28;20374;-45
2023/04/01 12:33:19;;;;;;;;;;;;;;;;;;5050994;28;19920;-44
2023/04/01 12:35:45;;;;;;;;;;;;;;;;;;5051415;28;19912;-46
2023/04/01 12:38:11;;;;;;;;;;;;;;;;;;5052147;28;20035;-46
2023/04/01 12:40:38;;;;;;;;;;;;;;;;;;5051953;28;19976;-47
2023/04/01 12:43:04;;;;;;;;;;;;;;;;;;5051467;28;19966;-47
2023/04/01 12:45:31;;;;;;;;;;;;;;;;;;5048496;28;19916;-44
2023/04/01 12:47:57;;;;;;;;;;;;;;;;;;5035940;28;19913;-48
2023/04/01 12:50:24;;;;;;;;;;;;;;;;;;5039942;28;19908;-46
2023/04/01 12:52:50;;;;;;;;;;;;;;;;;;5041971;28;19939;-45
2023/04/01 12:55:16;;;;;;;;;;;;;;;;;;5045815;28;19915;-46
2023/04/01 12:57:43;;;;;;;;;;;;;;;;;;5039878;28;20355;-45
2023/04/01 13:00:09;;;;;;;;;;;;;;;;;;5038406;28;19952;-48
2023/04/01 13:02:35;;;;;;;;;;;;;;;;;;5032986;28;19913;-45
2023/04/01 13:05:05;;;;;;;;;;;;;;;;;;5033422;28;19916;-48
2023/04/01 13:07:32;;;;;;;;;;;;;;;;;;5040500;28;19916;-48
2023/04/01 13:09:58;;;;;;;;;;;;;;;;;;5026813;28;19909;-44
2023/04/01 13:12:25;;;;;;;;;;;;;;;;;;5043266;28;19939;-49
2023/04/01 13:14:51;;;;;;;;;;;;;;;;;;5039680;28;19935;-51
2023/04/01 13:17:18;;;;;;;;;;;;;;;;;;5038193;28;19940;-47
2023/04/01 13:19:44;;;;;;;;;;;;;;;;;;5038449;28;19983;-50
2023/04/01 13:22:10;;;;;;;;;;;;;;;;;;5040007;28;20011;-46
2023/04/01 13:24:37;;;;;;;;;;;;;;;;;;5039083;28;19998;-48
2023/04/01 13:27:03;;;;;;;;;;;;;;;;;;5042556;28;19925;-46
2023/04/01 13:29:30;;;;;;;;;;;;;;;;;;5038856;28;19920;-47
2023/04/01 13:31:56;;;;;;;;;;;;;;;;;;5043123;28;19913;-45
2023/04/01 13:34:23;;;;;;;;;;;;;;;;;;5044042;28;20342;-47
2023/04/01 13:36:49;;;;;;;;;;;;;;;;;;5044738;28;19913;-47
2023/04/01 13:39:16;;;;;;;;;;;;;;;;;;5044284;28;20763;-47
2023/04/01 13:41:42;;;;;;;;;;;;;;;;;;5042447;28;20027;-45
2023/04/01 13:44:08;;;;;;;;;;;;;;;;;;5041083;28;19913;-48
2023/04/01 13:46:35;;;;;;;;;;;;;;;;;;5050304;28;19924;-47
2023/04/01 13:49:02;;;;;;;;;;;;;;;;;;5052006;28;19923;-49
2023/04/01 13:51:28;;;;;;;;;;;;;;;;;;5052460;28;20350;-47
2023/04/01 13:53:55;;;;;;;;;;;;;;;;;;5045817;28;19909;-46
2023/04/01 13:56:21;;;;;;;;;;;;;;;;;;5045283;28;20014;-48
2023/04/01 13:58:47;;;;;;;;;;;;;;;;;;5047505;28;20363;-48
2023/04/01 14:01:14;;;;;;;;;;;;;;;;;;5049098;28;19920;-45
2023/04/01 14:03:40;;;;;;;;;;;;;;;;;;5046650;28;20294;-48
2023/04/01 14:06:07;;;;;;;;;;;;;;;;;;5048224;28;19952;-47
2023/04/01 14:08:33;;;;;;;;;;;;;;;;;;5047057;28;19962;-47
2023/04/01 14:11:00;;;;;;;;;;;;;;;;;;5050434;28;19909;-48
2023/04/01 14:13:27;;;;;;;;;;;;;;;;;;5045913;28;19917;-47
2023/04/01 14:15:54;;;;;;;;;;;;;;;;;;5050756;28;19932;-46
2023/04/01 14:18:20;;;;;;;;;;;;;;;;;;5048918;28;19958;-48
2023/04/01 14:20:48;;;;;;;;;;;;;;;;;;5047677;28;19909;-50
2023/04/01 14:23:14;;;;;;;;;;;;;;;;;;5045933;28;20429;-47
2023/04/01 14:25:41;;;;;;;;;;;;;;;;;;5031175;28;19916;-48
2023/04/01 14:28:07;;;;;;;;;;;;;;;;;;5049763;28;20667;-49
2023/04/01 14:30:33;;;;;;;;;;;;;;;;;;5049584;28;19909;-47
2023/04/01 14:33:00;;;;;;;;;;;;;;;;;;5043296;28;19908;-45
2023/04/01 14:35:26;;;;;;;;;;;;;;;;;;5043154;28;19917;-49
2023/04/01 14:37:52;;;;;;;;;;;;;;;;;;5046222;28;19991;-44
2023/04/01 14:40:19;;;;;;;;;;;;;;;;;;5045682;28;19908;-43
2023/04/01 14:42:46;;;;;;;;;;;;;;;;;;5044150;28;19932;-48
2023/04/01 14:45:12;;;;;;;;;;;;;;;;;;5044900;28;19916;-44
2023/04/01 14:47:39;;;;;;;;;;;;;;;;;;5045134;28;19921;-46
2023/04/01 14:50:05;;;;;;;;;;;;;;;;;;5045426;28;19960;-46
2023/04/01 14:52:33;;;;;;;;;;;;;;;;;;5043064;28;19915;-47
2023/04/01 14:55:00;;;;;;;;;;;;;;;;;;5044499;28;19912;-44
2023/04/01 14:57:26;;;;;;;;;;;;;;;;;;5044459;28;19913;-44
2023/04/01 14:59:53;;;;;;;;;;;;;;;;;;5039740;28;19909;-41
2023/04/01 15:02:19;;;;;;;;;;;;;;;;;;5038246;28;19959;-46
2023/04/01 15:04:45;;;;;;;;;;;;;;;;;;5047551;28;19958;-45
2023/04/01 15:07:12;;;;;;;;;;;;;;;;;;5044563;28;19921;-47
2023/04/01 15:09:38;;;;;;;;;;;;;;;;;;5045698;28;20441;-44
2023/04/01 15:12:05;;;;;;;;;;;;;;;;;;5043751;28;20350;-46
2023/04/01 15:14:31;;;;;;;;;;;;;;;;;;5048788;28;19913;-46
2023/04/01 15:16:58;;;;;;;;;;;;;;;;;;5045367;28;20332;-47
2023/04/01 15:19:24;;;;;;;;;;;;;;;;;;5045398;28;19919;-46
2023/04/01 15:21:51;;;;;;;;;;;;;;;;;;5046565;28;19974;-44
2023/04/01 15:24:17;;;;;;;;;;;;;;;;;;5044343;28;19962;-43
2023/04/01 15:26:44;;;;;;;;;;;;;;;;;;5042795;28;19924;-42
2023/04/01 15:29:10;;;;;;;;;;;;;;;;;;5042507;28;19923;-42
2023/04/01 15:31:37;;;;;;;;;;;;;;;;;;5042359;28;19909;-43
2023/04/01 15:34:03;;;;;;;;;;;;;;;;;;5043520;28;19916;-41
2023/04/01 15:36:30;;;;;;;;;;;;;;;;;;5048316;28;19957;-43
2023/04/01 15:38:56;;;;;;;;;;;;;;;;;;5041700;28;19923;-44
2023/04/01 15:41:22;;;;;;;;;;;;;;;;;;5045247;28;20401;-43
2023/04/01 15:43:49;;;;;;;;;;;;;;;;;;5041180;28;19909;-44
2023/04/01 15:46:15;;;;;;;;;;;;;;;;;;5045315;28;20450;-47
2023/04/01 15:48:42;;;;;;;;;;;;;;;;;;5044106;28;20004;-40
2023/04/01 15:51:08;;;;;;;;;;;;;;;;;;5043748;28;19967;-43
2023/04/01 15:53:35;;;;;;;;;;;;;;;;;;5041709;28;19913;-45
2023/04/01 15:56:01;;;;;;;;;;;;;;;;;;5043681;28;19909;-46
2023/04/01 15:58:28;;;;;;;;;;;;;;;;;;5045271;28;19913;-48
2023/04/01 16:00:54;;;;;;;;;;;;;;;;;;5045981;28;20402;-45
2023/04/01 16:03:21;;;;;;;;;;;;;;;;;;5037538;28;19916;-45
2023/04/01 16:05:47;;;;;;;;;;;;;;;;;;5040316;28;19921;-43
2023/04/01 16:08:14;;;;;;;;;;;;;;;;;;5042921;28;19909;-43
2023/04/01 16:10:40;;;;;;;;;;;;;;;;;;5029076;28;19990;-44
2023/04/01 16:13:07;;;;;;;;;;;;;;;;;;5040527;28;20058;-42
2023/04/01 16:15:34;;;;;;;;;;;;;;;;;;5042002;28;19908;-45
2023/04/01 16:18:00;;;;;;;;;;;;;;;;;;5040958;28;19920;-46
2023/04/01 16:20:27;;;;;;;;;;;;;;;;;;5041701;28;19913;-43
2023/04/01 16:22:54;;;;;;;;;;;;;;;;;;5047540;28;19908;-41
2023/04/01 16:25:21;;;;;;;;;;;;;;;;;;5042439;28;19967;-45
2023/04/01 16:27:47;;;;;;;;;;;;;;;;;;5043534;28;20374;-41
2023/04/01 16:30:14;;;;;;;;;;;;;;;;;;5040162;28;19986;-45
2023/04/01 16:32:40;;;;;;;;;;;;;;;;;;5043449;28;20001;-42
2023/04/01 16:35:07;;;;;;;;;;;;;;;;;;5042265;28;20023;-46
2023/04/01 16:37:33;;;;;;;;;;;;;;;;;;5044137;28;19935;-44
2023/04/01 16:40:01;;;;;;;;;;;;;;;;;;5045760;28;19916;-45